logo
Search for airport 
image banner adimage banner adimage banner ad
image banner ad

OMAL - Al Ain / International

Located in Al Ain, United Arab Emirates

ICAO - OMAL, IATA - AAN

Data provided by Airmate  

General information

Coordinates: N24°15'42" E55°36'33"
Elevation is 866 feet MSL.
 
View others Airports in Abu Dhabi Emirate

Operational data

Special qualification required
Current time UTC:
Current local time:
Weather
METAR: OMAL 200700Z VRB03KT CAVOK 30/08 Q1011 NOSIG
TAF: TAF OMAL 200500Z 2006/2112 30007KT 8000 NSC BECMG 2018/2020 03005KT
View NOTAMs / SUP AIP / TFR affecting this airport [VIEW]
Communications frequencies: [VIEW]

Runways:

RWY identifierQFULength (ft)Width (ft)SurfaceLDA (ft)
0113140148ASP
19187°13140148ASP

Airport contact information

Address: Al Ain United Arab Emirates

Satellite view of OMAL